sensor_id;sensor_type;location;lat;lon;timestamp;temperature;humidity
75010;DHT22;63564;46.840;18.336;2023-03-14T00:00:53;10.51;60.36
75010;DHT22;63564;46.840;18.336;2023-03-14T00:03:54;10.57;59.96
75010;DHT22;63564;46.840;18.336;2023-03-14T00:06:54;10.51;59.97
75010;DHT22;63564;46.840;18.336;2023-03-14T00:09:55;10.48;59.93
75010;DHT22;63564;46.840;18.336;2023-03-14T00:12:55;10.68;59.34
75010;DHT22;63564;46.840;18.336;2023-03-14T00:16:02;10.67;58.93
75010;DHT22;63564;46.840;18.336;2023-03-14T00:19:02;10.65;59.25
75010;DHT22;63564;46.840;18.336;2023-03-14T00:22:03;10.48;59.75
75010;DHT22;63564;46.840;18.336;2023-03-14T00:25:04;10.30;60.46
75010;DHT22;63564;46.840;18.336;2023-03-14T00:28:05;10.12;61.46
75010;DHT22;63564;46.840;18.336;2023-03-14T00:31:07;10.14;61.40
75010;DHT22;63564;46.840;18.336;2023-03-14T00:34:07;10.25;60.86
75010;DHT22;63564;46.840;18.336;2023-03-14T00:37:08;10.20;61.25
75010;DHT22;63564;46.840;18.336;2023-03-14T00:40:09;10.16;61.37
75010;DHT22;63564;46.840;18.336;2023-03-14T00:43:09;10.21;60.95
75010;DHT22;63564;46.840;18.336;2023-03-14T00:46:10;10.34;60.36
75010;DHT22;63564;46.840;18.336;2023-03-14T00:49:10;10.31;60.55
75010;DHT22;63564;46.840;18.336;2023-03-14T00:52:11;10.55;59.81
75010;DHT22;63564;46.840;18.336;2023-03-14T00:55:11;10.60;59.55
75010;DHT22;63564;46.840;18.336;2023-03-14T00:58:13;10.45;60.13
75010;DHT22;63564;46.840;18.336;2023-03-14T01:01:17;10.36;60.54
75010;DHT22;63564;46.840;18.336;2023-03-14T01:04:18;10.36;60.62
75010;DHT22;63564;46.840;18.336;2023-03-14T01:07:18;10.40;60.56
75010;DHT22;63564;46.840;18.336;2023-03-14T01:10:19;10.38;60.50
75010;DHT22;63564;46.840;18.336;2023-03-14T01:13:19;10.47;60.10
75010;DHT22;63564;46.840;18.336;2023-03-14T01:16:22;10.62;59.73
75010;DHT22;63564;46.840;18.336;2023-03-14T01:19:22;10.71;59.12
75010;DHT22;63564;46.840;18.336;2023-03-14T01:22:23;10.76;58.90
75010;DHT22;63564;46.840;18.336;2023-03-14T01:25:23;10.83;58.38
75010;DHT22;63564;46.840;18.336;2023-03-14T01:28:24;10.91;58.08
75010;DHT22;63564;46.840;18.336;2023-03-14T01:31:25;11.08;57.46
75010;DHT22;63564;46.840;18.336;2023-03-14T01:34:26;11.12;57.56
75010;DHT22;63564;46.840;18.336;2023-03-14T01:37:26;11.00;57.68
75010;DHT22;63564;46.840;18.336;2023-03-14T01:40:27;11.16;56.99
75010;DHT22;63564;46.840;18.336;2023-03-14T01:43:28;11.13;56.98
75010;DHT22;63564;46.840;18.336;2023-03-14T01:46:44;11.06;57.62
75010;DHT22;63564;46.840;18.336;2023-03-14T01:49:54;11.19;56.84
75010;DHT22;63564;46.840;18.336;2023-03-14T01:52:56;11.20;56.77
75010;DHT22;63564;46.840;18.336;2023-03-14T01:55:57;11.19;56.94
75010;DHT22;63564;46.840;18.336;2023-03-14T01:58:59;11.08;57.38
75010;DHT22;63564;46.840;18.336;2023-03-14T02:02:02;11.00;58.01
75010;DHT22;63564;46.840;18.336;2023-03-14T02:05:06;10.72;59.03
75010;DHT22;63564;46.840;18.336;2023-03-14T02:08:12;10.67;59.34
75010;DHT22;63564;46.840;18.336;2023-03-14T02:11:14;10.57;59.77
75010;DHT22;63564;46.840;18.336;2023-03-14T02:14:25;10.76;58.77
75010;DHT22;63564;46.840;18.336;2023-03-14T02:17:26;10.68;59.10
75010;DHT22;63564;46.840;18.336;2023-03-14T02:23:57;10.83;58.31
75010;DHT22;63564;46.840;18.336;2023-03-14T02:30:08;11.10;57.17
75010;DHT22;63564;46.840;18.336;2023-03-14T02:33:13;11.10;57.20
75010;DHT22;63564;46.840;18.336;2023-03-14T02:36:15;11.08;57.38
75010;DHT22;63564;46.840;18.336;2023-03-14T02:39:40;11.43;55.64
75010;DHT22;63564;46.840;18.336;2023-03-14T02:42:42;11.84;54.09
75010;DHT22;63564;46.840;18.336;2023-03-14T02:45:43;12.02;53.56
75010;DHT22;63564;46.840;18.336;2023-03-14T02:51:56;11.96;53.68
75010;DHT22;63564;46.840;18.336;2023-03-14T02:54:56;11.96;53.76
75010;DHT22;63564;46.840;18.336;2023-03-14T02:57:56;11.95;53.73
75010;DHT22;63564;46.840;18.336;2023-03-14T03:00:57;11.96;53.64
75010;DHT22;63564;46.840;18.336;2023-03-14T03:03:57;12.02;53.45
75010;DHT22;63564;46.840;18.336;2023-03-14T03:06:58;11.95;53.80
75010;DHT22;63564;46.840;18.336;2023-03-14T03:09:58;11.96;53.57
75010;DHT22;63564;46.840;18.336;2023-03-14T03:12:59;12.15;52.75
75010;DHT22;63564;46.840;18.336;2023-03-14T03:16:00;12.33;52.18
75010;DHT22;63564;46.840;18.336;2023-03-14T03:19:00;12.46;51.72
75010;DHT22;63564;46.840;18.336;2023-03-14T03:22:01;12.46;51.63
75010;DHT22;63564;46.840;18.336;2023-03-14T03:25:02;12.41;51.90
75010;DHT22;63564;46.840;18.336;2023-03-14T03:28:03;12.46;51.48
75010;DHT22;63564;46.840;18.336;2023-03-14T03:31:09;12.53;51.40
75010;DHT22;63564;46.840;18.336;2023-03-14T03:34:10;12.43;51.84
75010;DHT22;63564;46.840;18.336;2023-03-14T03:37:10;12.40;52.03
75010;DHT22;63564;46.840;18.336;2023-03-14T03:40:12;12.34;52.23
75010;DHT22;63564;46.840;18.336;2023-03-14T03:43:12;12.30;52.38
75010;DHT22;63564;46.840;18.336;2023-03-14T03:46:13;12.32;51.93
75010;DHT22;63564;46.840;18.336;2023-03-14T03:49:13;12.34;52.26
75010;DHT22;63564;46.840;18.336;2023-03-14T03:52:14;12.30;52.38
75010;DHT22;63564;46.840;18.336;2023-03-14T03:55:14;12.23;52.61
75010;DHT22;63564;46.840;18.336;2023-03-14T03:58:15;12.22;52.62
75010;DHT22;63564;46.840;18.336;2023-03-14T04:01:15;12.22;52.65
75010;DHT22;63564;46.840;18.336;2023-03-14T04:04:15;12.12;52.86
75010;DHT22;63564;46.840;18.336;2023-03-14T04:07:16;12.12;52.82
75010;DHT22;63564;46.840;18.336;2023-03-14T04:10:16;12.13;52.85
75010;DHT22;63564;46.840;18.336;2023-03-14T04:13:17;12.09;52.87
75010;DHT22;63564;46.840;18.336;2023-03-14T04:16:20;12.05;52.99
75010;DHT22;63564;46.840;18.336;2023-03-14T04:19:21;12.03;53.15
75010;DHT22;63564;46.840;18.336;2023-03-14T04:22:22;12.02;53.04
75010;DHT22;63564;46.840;18.336;2023-03-14T04:25:22;12.01;53.02
75010;DHT22;63564;46.840;18.336;2023-03-14T04:28:22;11.95;53.35
75010;DHT22;63564;46.840;18.336;2023-03-14T04:31:23;11.98;53.27
75010;DHT22;63564;46.840;18.336;2023-03-14T04:34:23;11.94;53.38
75010;DHT22;63564;46.840;18.336;2023-03-14T04:37:24;11.95;53.30
75010;DHT22;63564;46.840;18.336;2023-03-14T04:40:25;12.03;52.79
75010;DHT22;63564;46.840;18.336;2023-03-14T04:43:25;12.06;52.50
75010;DHT22;63564;46.840;18.336;2023-03-14T04:46:26;12.09;52.69
75010;DHT22;63564;46.840;18.336;2023-03-14T04:49:26;12.03;52.71
75010;DHT22;63564;46.840;18.336;2023-03-14T04:52:27;12.11;52.41
75010;DHT22;63564;46.840;18.336;2023-03-14T04:55:27;12.11;52.46
75010;DHT22;63564;46.840;18.336;2023-03-14T04:58:28;12.20;52.05
75010;DHT22;63564;46.840;18.336;2023-03-14T05:01:28;12.25;51.64
75010;DHT22;63564;46.840;18.336;2023-03-14T05:04:28;12.22;51.89
75010;DHT22;63564;46.840;18.336;2023-03-14T05:07:29;12.16;52.11
75010;DHT22;63564;46.840;18.336;2023-03-14T05:10:29;12.12;52.38
75010;DHT22;63564;46.840;18.336;2023-03-14T05:13:30;12.11;52.43
75010;DHT22;63564;46.840;18.336;2023-03-14T05:16:30;12.08;52.48
75010;DHT22;63564;46.840;18.336;2023-03-14T05:19:31;12.11;52.13
75010;DHT22;63564;46.840;18.336;2023-03-14T05:22:31;12.12;52.18
75010;DHT22;63564;46.840;18.336;2023-03-14T05:25:32;12.09;52.18
75010;DHT22;63564;46.840;18.336;2023-03-14T05:28:32;12.18;51.82
75010;DHT22;63564;46.840;18.336;2023-03-14T05:31:32;12.29;51.21
75010;DHT22;63564;46.840;18.336;2023-03-14T05:34:33;12.28;51.21
75010;DHT22;63564;46.840;18.336;2023-03-14T05:37:33;12.30;51.21
75010;DHT22;63564;46.840;18.336;2023-03-14T05:40:34;12.37;50.86
75010;DHT22;63564;46.840;18.336;2023-03-14T05:43:35;12.41;50.64
75010;DHT22;63564;46.840;18.336;2023-03-14T05:46:35;12.46;50.48
75010;DHT22;63564;46.840;18.336;2023-03-14T05:49:36;12.50;50.56
75010;DHT22;63564;46.840;18.336;2023-03-14T05:52:36;12.44;50.65
75010;DHT22;63564;46.840;18.336;2023-03-14T05:55:37;12.47;50.71
75010;DHT22;63564;46.840;18.336;2023-03-14T05:58:38;12.50;50.77
75010;DHT22;63564;46.840;18.336;2023-03-14T06:01:39;12.47;50.81
75010;DHT22;63564;46.840;18.336;2023-03-14T06:04:39;12.57;50.65
75010;DHT22;63564;46.840;18.336;2023-03-14T06:07:40;12.63;50.57
75010;DHT22;63564;46.840;18.336;2023-03-14T06:10:40;12.71;50.46
75010;DHT22;63564;46.840;18.336;2023-03-14T06:13:41;12.74;50.78
75010;DHT22;63564;46.840;18.336;2023-03-14T06:16:41;12.74;50.89
75010;DHT22;63564;46.840;18.336;2023-03-14T06:19:42;12.83;50.63
75010;DHT22;63564;46.840;18.336;2023-03-14T06:22:42;12.85;50.62
75010;DHT22;63564;46.840;18.336;2023-03-14T06:25:43;12.92;50.65
75010;DHT22;63564;46.840;18.336;2023-03-14T06:28:43;12.98;50.52
75010;DHT22;63564;46.840;18.336;2023-03-14T06:31:44;12.99;50.58
75010;DHT22;63564;46.840;18.336;2023-03-14T06:34:44;13.12;50.70
75010;DHT22;63564;46.840;18.336;2023-03-14T06:37:45;13.27;50.24
75010;DHT22;63564;46.840;18.336;2023-03-14T06:40:45;13.36;50.81
75010;DHT22;63564;46.840;18.336;2023-03-14T06:43:45;13.53;52.55
75010;DHT22;63564;46.840;18.336;2023-03-14T06:46:46;13.52;49.94
75010;DHT22;63564;46.840;18.336;2023-03-14T06:49:46;13.67;49.36
75010;DHT22;63564;46.840;18.336;2023-03-14T06:52:47;13.74;49.36
75010;DHT22;63564;46.840;18.336;2023-03-14T06:55:47;13.84;49.86
75010;DHT22;63564;46.840;18.336;2023-03-14T06:58:48;13.92;49.67
75010;DHT22;63564;46.840;18.336;2023-03-14T07:01:48;14.07;49.41
75010;DHT22;63564;46.840;18.336;2023-03-14T07:04:50;14.32;48.38
75010;DHT22;63564;46.840;18.336;2023-03-14T07:07:51;14.43;47.53
75010;DHT22;63564;46.840;18.336;2023-03-14T07:10:51;14.55;46.78
75010;DHT22;63564;46.840;18.336;2023-03-14T07:13:52;14.66;46.60
75010;DHT22;63564;46.840;18.336;2023-03-14T07:16:52;14.76;45.86
75010;DHT22;63564;46.840;18.336;2023-03-14T07:19:52;14.90;45.82
75010;DHT22;63564;46.840;18.336;2023-03-14T07:22:53;15.00;45.23
75010;DHT22;63564;46.840;18.336;2023-03-14T07:25:54;15.20;44.14
75010;DHT22;63564;46.840;18.336;2023-03-14T07:28:55;15.31;43.85
75010;DHT22;63564;46.840;18.336;2023-03-14T07:31:55;15.51;42.63
75010;DHT22;63564;46.840;18.336;2023-03-14T07:34:55;15.69;42.19
75010;DHT22;63564;46.840;18.336;2023-03-14T07:37:56;15.78;41.96
75010;DHT22;63564;46.840;18.336;2023-03-14T07:41:01;15.90;41.35
75010;DHT22;63564;46.840;18.336;2023-03-14T07:44:02;15.99;41.49
75010;DHT22;63564;46.840;18.336;2023-03-14T07:47:02;15.99;41.22
75010;DHT22;63564;46.840;18.336;2023-03-14T07:50:07;15.96;40.68
75010;DHT22;63564;46.840;18.336;2023-03-14T07:53:08;16.00;40.34
75010;DHT22;63564;46.840;18.336;2023-03-14T07:56:08;15.97;41.00
75010;DHT22;63564;46.840;18.336;2023-03-14T07:59:09;15.99;41.10
75010;DHT22;63564;46.840;18.336;2023-03-14T08:02:11;15.94;40.62
75010;DHT22;63564;46.840;18.336;2023-03-14T08:05:12;15.96;40.65
75010;DHT22;63564;46.840;18.336;2023-03-14T08:08:12;15.99;40.61
75010;DHT22;63564;46.840;18.336;2023-03-14T08:11:12;16.13;40.65
75010;DHT22;63564;46.840;18.336;2023-03-14T08:14:13;16.11;40.82
75010;DHT22;63564;46.840;18.336;2023-03-14T08:17:13;16.27;40.87
75010;DHT22;63564;46.840;18.336;2023-03-14T08:20:14;16.38;40.88
75010;DHT22;63564;46.840;18.336;2023-03-14T08:23:14;16.41;39.71
75010;DHT22;63564;46.840;18.336;2023-03-14T08:26:14;16.37;39.37
75010;DHT22;63564;46.840;18.336;2023-03-14T08:29:15;16.47;39.33
75010;DHT22;63564;46.840;18.336;2023-03-14T08:32:15;16.73;39.15
75010;DHT22;63564;46.840;18.336;2023-03-14T08:35:16;16.82;39.25
75010;DHT22;63564;46.840;18.336;2023-03-14T08:38:16;16.89;38.95
75010;DHT22;63564;46.840;18.336;2023-03-14T08:41:16;17.06;39.05
75010;DHT22;63564;46.840;18.336;2023-03-14T08:44:17;17.20;38.75
75010;DHT22;63564;46.840;18.336;2023-03-14T08:47:17;17.34;38.87
75010;DHT22;63564;46.840;18.336;2023-03-14T08:50:18;17.26;39.09
75010;DHT22;63564;46.840;18.336;2023-03-14T08:53:18;17.03;39.04
75010;DHT22;63564;46.840;18.336;2023-03-14T08:56:21;17.32;39.55
75010;DHT22;63564;46.840;18.336;2023-03-14T08:59:22;17.62;39.39
75010;DHT22;63564;46.840;18.336;2023-03-14T09:02:24;17.76;39.38
75010;DHT22;63564;46.840;18.336;2023-03-14T09:05:25;17.74;39.76
75010;DHT22;63564;46.840;18.336;2023-03-14T09:08:25;17.75;39.36
75010;DHT22;63564;46.840;18.336;2023-03-14T09:11:25;17.86;39.20
75010;DHT22;63564;46.840;18.336;2023-03-14T09:14:26;17.92;39.49
75010;DHT22;63564;46.840;18.336;2023-03-14T09:17:26;18.07;38.60
75010;DHT22;63564;46.840;18.336;2023-03-14T09:20:27;18.07;38.47
75010;DHT22;63564;46.840;18.336;2023-03-14T09:23:27;18.07;38.07
75010;DHT22;63564;46.840;18.336;2023-03-14T09:26:28;18.09;38.38
75010;DHT22;63564;46.840;18.336;2023-03-14T09:29:28;18.30;39.10
75010;DHT22;63564;46.840;18.336;2023-03-14T09:32:30;18.64;38.79
75010;DHT22;63564;46.840;18.336;2023-03-14T09:35:33;18.69;37.87
75010;DHT22;63564;46.840;18.336;2023-03-14T09:38:34;18.72;37.81
75010;DHT22;63564;46.840;18.336;2023-03-14T09:41:37;19.15;37.25
75010;DHT22;63564;46.840;18.336;2023-03-14T09:45:11;18.94;36.69
75010;DHT22;63564;46.840;18.336;2023-03-14T09:48:16;19.03;36.94
75010;DHT22;63564;46.840;18.336;2023-03-14T09:51:20;19.29;36.46
75010;DHT22;63564;46.840;18.336;2023-03-14T09:57:45;19.31;36.20
75010;DHT22;63564;46.840;18.336;2023-03-14T10:00:45;19.64;35.50
75010;DHT22;63564;46.840;18.336;2023-03-14T10:03:46;20.01;34.59
75010;DHT22;63564;46.840;18.336;2023-03-14T10:06:47;20.54;34.33
75010;DHT22;63564;46.840;18.336;2023-03-14T10:09:50;21.21;33.41
75010;DHT22;63564;46.840;18.336;2023-03-14T10:16:04;21.73;32.80
75010;DHT22;63564;46.840;18.336;2023-03-14T10:19:10;20.92;33.32
75010;DHT22;63564;46.840;18.336;2023-03-14T10:22:14;20.49;33.97
75010;DHT22;63564;46.840;18.336;2023-03-14T10:25:27;20.29;34.02
75010;DHT22;63564;46.840;18.336;2023-03-14T10:28:30;20.85;33.28
75010;DHT22;63564;46.840;18.336;2023-03-14T10:31:47;21.49;32.09
75010;DHT22;63564;46.840;18.336;2023-03-14T10:35:06;21.41;32.20
75010;DHT22;63564;46.840;18.336;2023-03-14T10:38:12;21.67;31.13
75010;DHT22;63564;46.840;18.336;2023-03-14T10:41:19;21.29;32.53
75010;DHT22;63564;46.840;18.336;2023-03-14T10:44:25;21.53;32.48
75010;DHT22;63564;46.840;18.336;2023-03-14T10:47:26;21.43;31.76
75010;DHT22;63564;46.840;18.336;2023-03-14T10:50:30;21.90;31.63
75010;DHT22;63564;46.840;18.336;2023-03-14T10:53:56;21.86;32.00
75010;DHT22;63564;46.840;18.336;2023-03-14T10:56:58;22.31;31.07
75010;DHT22;63564;46.840;18.336;2023-03-14T10:59:59;21.93;31.08
75010;DHT22;63564;46.840;18.336;2023-03-14T11:03:11;22.45;30.58
75010;DHT22;63564;46.840;18.336;2023-03-14T11:06:42;21.74;31.48
75010;DHT22;63564;46.840;18.336;2023-03-14T11:09:58;21.22;32.79
75010;DHT22;63564;46.840;18.336;2023-03-14T11:16:52;21.59;31.97
75010;DHT22;63564;46.840;18.336;2023-03-14T11:29:40;21.86;31.82
75010;DHT22;63564;46.840;18.336;2023-03-14T11:32:50;21.56;30.78
75010;DHT22;63564;46.840;18.336;2023-03-14T11:36:15;21.42;31.01
75010;DHT22;63564;46.840;18.336;2023-03-14T11:39:20;22.11;30.03
75010;DHT22;63564;46.840;18.336;2023-03-14T11:42:21;22.69;29.47
75010;DHT22;63564;46.840;18.336;2023-03-14T11:45:35;22.87;28.84
75010;DHT22;63564;46.840;18.336;2023-03-14T11:52:34;21.32;30.69
75010;DHT22;63564;46.840;18.336;2023-03-14T11:55:37;21.02;30.62
75010;DHT22;63564;46.840;18.336;2023-03-14T11:58:49;20.81;30.81
75010;DHT22;63564;46.840;18.336;2023-03-14T12:02:01;20.46;31.17
75010;DHT22;63564;46.840;18.336;2023-03-14T12:08:48;20.59;31.66
75010;DHT22;63564;46.840;18.336;2023-03-14T12:11:50;20.99;31.60
75010;DHT22;63564;46.840;18.336;2023-03-14T12:15:01;20.71;32.31
75010;DHT22;63564;46.840;18.336;2023-03-14T12:18:02;20.66;32.10
75010;DHT22;63564;46.840;18.336;2023-03-14T12:21:05;20.76;32.43
75010;DHT22;63564;46.840;18.336;2023-03-14T12:24:18;20.84;32.72
75010;DHT22;63564;46.840;18.336;2023-03-14T12:30:47;21.63;30.24
75010;DHT22;63564;46.840;18.336;2023-03-14T12:33:48;22.65;29.38
75010;DHT22;63564;46.840;18.336;2023-03-14T12:37:14;23.34;28.24
75010;DHT22;63564;46.840;18.336;2023-03-14T12:40:31;24.33;26.68
75010;DHT22;63564;46.840;18.336;2023-03-14T12:43:34;24.92;26.63
75010;DHT22;63564;46.840;18.336;2023-03-14T12:46:35;25.58;25.63
75010;DHT22;63564;46.840;18.336;2023-03-14T12:49:36;24.69;27.72
75010;DHT22;63564;46.840;18.336;2023-03-14T12:56:38;23.82;28.41
75010;DHT22;63564;46.840;18.336;2023-03-14T12:59:47;23.72;27.49
75010;DHT22;63564;46.840;18.336;2023-03-14T13:02:50;23.95;27.57
75010;DHT22;63564;46.840;18.336;2023-03-14T13:05:57;24.34;27.11
75010;DHT22;63564;46.840;18.336;2023-03-14T13:08:58;25.22;26.59
75010;DHT22;63564;46.840;18.336;2023-03-14T13:12:23;23.37;27.46
75010;DHT22;63564;46.840;18.336;2023-03-14T13:15:31;22.80;28.29
75010;DHT22;63564;46.840;18.336;2023-03-14T13:18:38;22.38;28.49
75010;DHT22;63564;46.840;18.336;2023-03-14T13:21:39;22.89;28.13
75010;DHT22;63564;46.840;18.336;2023-03-14T13:24:40;24.31;27.41
75010;DHT22;63564;46.840;18.336;2023-03-14T13:27:41;24.05;26.10
75010;DHT22;63564;46.840;18.336;2023-03-14T13:30:47;23.82;26.75
75010;DHT22;63564;46.840;18.336;2023-03-14T13:33:57;23.51;26.81
75010;DHT22;63564;46.840;18.336;2023-03-14T13:36:58;23.50;27.76
75010;DHT22;63564;46.840;18.336;2023-03-14T13:39:59;22.80;27.85
75010;DHT22;63564;46.840;18.336;2023-03-14T13:43:21;22.67;28.72
75010;DHT22;63564;46.840;18.336;2023-03-14T13:46:23;22.11;29.10
75010;DHT22;63564;46.840;18.336;2023-03-14T13:49:25;21.87;28.99
75010;DHT22;63564;46.840;18.336;2023-03-14T13:52:30;21.67;29.04
75010;DHT22;63564;46.840;18.336;2023-03-14T13:55:31;21.50;28.27
75010;DHT22;63564;46.840;18.336;2023-03-14T13:58:32;21.45;28.60
75010;DHT22;63564;46.840;18.336;2023-03-14T14:01:34;21.32;28.55
75010;DHT22;63564;46.840;18.336;2023-03-14T14:04:36;21.36;28.36
75010;DHT22;63564;46.840;18.336;2023-03-14T14:07:37;21.34;28.08
75010;DHT22;63564;46.840;18.336;2023-03-14T14:10:38;21.29;28.54
75010;DHT22;63564;46.840;18.336;2023-03-14T14:13:39;21.14;28.47
75010;DHT22;63564;46.840;18.336;2023-03-14T14:16:39;21.02;29.07
75010;DHT22;63564;46.840;18.336;2023-03-14T14:19:42;20.95;28.78
75010;DHT22;63564;46.840;18.336;2023-03-14T14:22:43;20.94;28.59
75010;DHT22;63564;46.840;18.336;2023-03-14T14:25:43;20.95;28.98
75010;DHT22;63564;46.840;18.336;2023-03-14T14:28:44;20.92;29.20
75010;DHT22;63564;46.840;18.336;2023-03-14T14:31:45;20.80;29.83
75010;DHT22;63564;46.840;18.336;2023-03-14T14:34:58;20.70;29.43
75010;DHT22;63564;46.840;18.336;2023-03-14T14:37:59;20.63;29.69
75010;DHT22;63564;46.840;18.336;2023-03-14T14:41:01;20.53;30.15
75010;DHT22;63564;46.840;18.336;2023-03-14T14:44:03;20.50;30.07
75010;DHT22;63564;46.840;18.336;2023-03-14T14:47:04;20.46;29.98
75010;DHT22;63564;46.840;18.336;2023-03-14T14:50:19;20.49;30.05
75010;DHT22;63564;46.840;18.336;2023-03-14T14:53:40;20.59;29.90
75010;DHT22;63564;46.840;18.336;2023-03-14T14:56:50;20.69;30.25
75010;DHT22;63564;46.840;18.336;2023-03-14T14:59:51;20.64;29.98
75010;DHT22;63564;46.840;18.336;2023-03-14T15:02:58;20.53;30.54
75010;DHT22;63564;46.840;18.336;2023-03-14T15:05:59;20.39;30.76
75010;DHT22;63564;46.840;18.336;2023-03-14T15:09:00;20.32;30.59
75010;DHT22;63564;46.840;18.336;2023-03-14T15:12:01;20.23;30.88
75010;DHT22;63564;46.840;18.336;2023-03-14T15:15:01;20.18;31.14
75010;DHT22;63564;46.840;18.336;2023-03-14T15:18:02;20.21;31.47
75010;DHT22;63564;46.840;18.336;2023-03-14T15:21:02;20.18;31.47
75010;DHT22;63564;46.840;18.336;2023-03-14T15:24:04;20.08;31.71
75010;DHT22;63564;46.840;18.336;2023-03-14T15:27:12;20.02;32.11
75010;DHT22;63564;46.840;18.336;2023-03-14T15:30:14;19.94;32.06
75010;DHT22;63564;46.840;18.336;2023-03-14T15:33:15;19.78;32.82
75010;DHT22;63564;46.840;18.336;2023-03-14T15:36:28;19.71;33.12
75010;DHT22;63564;46.840;18.336;2023-03-14T15:39:29;19.57;33.70
75010;DHT22;63564;46.840;18.336;2023-03-14T15:42:29;19.33;35.30
75010;DHT22;63564;46.840;18.336;2023-03-14T15:45:30;18.62;39.04
75010;DHT22;63564;46.840;18.336;2023-03-14T15:48:30;18.10;41.39
75010;DHT22;63564;46.840;18.336;2023-03-14T15:51:31;17.71;43.65
75010;DHT22;63564;46.840;18.336;2023-03-14T15:54:32;17.45;45.08
75010;DHT22;63564;46.840;18.336;2023-03-14T15:57:32;17.20;46.79
75010;DHT22;63564;46.840;18.336;2023-03-14T16:00:33;16.84;49.73
75010;DHT22;63564;46.840;18.336;2023-03-14T16:03:35;16.54;51.87
75010;DHT22;63564;46.840;18.336;2023-03-14T16:06:35;16.27;54.64
75010;DHT22;63564;46.840;18.336;2023-03-14T16:09:36;15.82;59.21
75010;DHT22;63564;46.840;18.336;2023-03-14T16:12:36;15.08;64.65
75010;DHT22;63564;46.840;18.336;2023-03-14T16:15:37;14.38;69.59
75010;DHT22;63564;46.840;18.336;2023-03-14T16:18:38;14.09;70.13
75010;DHT22;63564;46.840;18.336;2023-03-14T16:21:39;13.91;71.22
75010;DHT22;63564;46.840;18.336;2023-03-14T16:24:39;13.85;71.23
75010;DHT22;63564;46.840;18.336;2023-03-14T16:27:40;13.83;70.66
75010;DHT22;63564;46.840;18.336;2023-03-14T16:30:42;13.78;70.37
75010;DHT22;63564;46.840;18.336;2023-03-14T16:33:42;13.75;70.51
75010;DHT22;63564;46.840;18.336;2023-03-14T16:36:43;13.77;70.27
75010;DHT22;63564;46.840;18.336;2023-03-14T16:39:46;13.78;70.17
75010;DHT22;63564;46.840;18.336;2023-03-14T16:42:46;13.73;70.18
75010;DHT22;63564;46.840;18.336;2023-03-14T16:45:49;13.66;71.07
75010;DHT22;63564;46.840;18.336;2023-03-14T16:48:49;13.53;72.82
75010;DHT22;63564;46.840;18.336;2023-03-14T16:51:50;13.29;73.98
75010;DHT22;63564;46.840;18.336;2023-03-14T16:54:50;13.18;74.98
75010;DHT22;63564;46.840;18.336;2023-03-14T16:57:51;13.08;75.64
75010;DHT22;63564;46.840;18.336;2023-03-14T17:00:52;13.02;75.95
75010;DHT22;63564;46.840;18.336;2023-03-14T17:03:52;12.88;77.40
75010;DHT22;63564;46.840;18.336;2023-03-14T17:06:53;12.71;78.09
75010;DHT22;63564;46.840;18.336;2023-03-14T17:09:55;12.54;78.97
75010;DHT22;63564;46.840;18.336;2023-03-14T17:12:55;12.40;79.72
75010;DHT22;63564;46.840;18.336;2023-03-14T17:15:58;12.30;80.42
75010;DHT22;63564;46.840;18.336;2023-03-14T17:18:59;12.20;81.07
75010;DHT22;63564;46.840;18.336;2023-03-14T17:21:59;12.11;82.40
75010;DHT22;63564;46.840;18.336;2023-03-14T17:25:00;11.98;83.62
75010;DHT22;63564;46.840;18.336;2023-03-14T17:28:01;11.89;84.04
75010;DHT22;63564;46.840;18.336;2023-03-14T17:31:19;11.82;83.81
75010;DHT22;63564;46.840;18.336;2023-03-14T17:34:21;11.81;84.37
75010;DHT22;63564;46.840;18.336;2023-03-14T17:37:22;11.77;84.69
75010;DHT22;63564;46.840;18.336;2023-03-14T17:40:24;11.75;84.71
75010;DHT22;63564;46.840;18.336;2023-03-14T17:43:25;11.71;84.62
75010;DHT22;63564;46.840;18.336;2023-03-14T17:46:26;11.68;85.13
75010;DHT22;63564;46.840;18.336;2023-03-14T17:49:27;11.63;84.68
75010;DHT22;63564;46.840;18.336;2023-03-14T17:52:27;11.70;84.14
75010;DHT22;63564;46.840;18.336;2023-03-14T17:55:28;11.61;84.86
75010;DHT22;63564;46.840;18.336;2023-03-14T17:58:30;11.51;85.52
75010;DHT22;63564;46.840;18.336;2023-03-14T18:01:32;11.38;86.52
75010;DHT22;63564;46.840;18.336;2023-03-14T18:04:34;11.27;87.94
75010;DHT22;63564;46.840;18.336;2023-03-14T18:07:37;11.24;87.69
75010;DHT22;63564;46.840;18.336;2023-03-14T18:10:38;11.26;86.77
75010;DHT22;63564;46.840;18.336;2023-03-14T18:13:40;11.23;87.25
75010;DHT22;63564;46.840;18.336;2023-03-14T18:16:41;11.24;87.16
75010;DHT22;63564;46.840;18.336;2023-03-14T18:19:44;11.22;87.96
75010;DHT22;63564;46.840;18.336;2023-03-14T18:22:45;11.17;87.65
75010;DHT22;63564;46.840;18.336;2023-03-14T18:25:48;11.20;87.15
75010;DHT22;63564;46.840;18.336;2023-03-14T18:28:49;11.23;86.00
75010;DHT22;63564;46.840;18.336;2023-03-14T18:31:52;11.27;85.76
75010;DHT22;63564;46.840;18.336;2023-03-14T18:34:57;11.27;86.65
75010;DHT22;63564;46.840;18.336;2023-03-14T18:37:58;11.20;86.54
75010;DHT22;63564;46.840;18.336;2023-03-14T18:41:10;11.26;86.11
75010;DHT22;63564;46.840;18.336;2023-03-14T18:44:12;11.23;86.95
75010;DHT22;63564;46.840;18.336;2023-03-14T18:47:13;11.19;86.75
75010;DHT22;63564;46.840;18.336;2023-03-14T18:50:13;11.10;88.61
75010;DHT22;63564;46.840;18.336;2023-03-14T18:53:14;10.99;89.09
75010;DHT22;63564;46.840;18.336;2023-03-14T18:56:17;11.06;87.51
75010;DHT22;63564;46.840;18.336;2023-03-14T18:59:18;11.12;86.60
75010;DHT22;63564;46.840;18.336;2023-03-14T19:02:20;11.26;84.95
75010;DHT22;63564;46.840;18.336;2023-03-14T19:05:22;11.33;84.90
75010;DHT22;63564;46.840;18.336;2023-03-14T19:08:24;11.30;84.82
75010;DHT22;63564;46.840;18.336;2023-03-14T19:11:25;11.30;84.45
75010;DHT22;63564;46.840;18.336;2023-03-14T19:14:26;11.43;82.86
75010;DHT22;63564;46.840;18.336;2023-03-14T19:17:27;11.41;83.18
75010;DHT22;63564;46.840;18.336;2023-03-14T19:20:28;11.40;83.36
75010;DHT22;63564;46.840;18.336;2023-03-14T19:23:30;11.36;83.83
75010;DHT22;63564;46.840;18.336;2023-03-14T19:26:32;11.33;83.42
75010;DHT22;63564;46.840;18.336;2023-03-14T19:29:36;11.37;82.63
75010;DHT22;63564;46.840;18.336;2023-03-14T19:32:41;11.46;82.36
75010;DHT22;63564;46.840;18.336;2023-03-14T19:35:43;11.47;82.31
75010;DHT22;63564;46.840;18.336;2023-03-14T19:38:44;11.34;83.50